createdAt,value
2019-04-10T00:00:45.846Z,58.70
2019-04-10T00:01:44.717Z,59.40
2019-04-10T00:02:44.606Z,61.10
2019-04-10T00:03:44.518Z,61.90
2019-04-10T00:04:45.295Z,60.60
2019-04-10T00:05:44.556Z,62.10
2019-04-10T00:06:44.207Z,61.70
2019-04-10T00:07:44.109Z,61.10
2019-04-10T00:08:44.227Z,61.50
2019-04-10T00:09:43.910Z,61.90
2019-04-10T00:10:43.904Z,64.10
2019-04-10T00:11:43.812Z,61.10
2019-04-10T00:12:43.610Z,63.10
2019-04-10T00:13:43.513Z,63.60
2019-04-10T00:14:43.416Z,62.10
2019-04-10T00:15:43.463Z,59.80
2019-04-10T00:16:43.212Z,59.80
2019-04-10T00:17:43.244Z,59.00
2019-04-10T00:18:43.013Z,59.60
2019-04-10T00:19:43.644Z,58.40
2019-04-10T00:20:42.831Z,57.80
2019-04-10T00:21:42.715Z,58.00
2019-04-10T00:22:42.616Z,58.60
2019-04-10T00:23:43.589Z,58.40
2019-04-10T00:24:42.448Z,58.60
2019-04-10T00:25:43.396Z,58.90
2019-04-10T00:26:42.214Z,58.10
2019-04-10T00:27:43.030Z,57.60
2019-04-10T00:28:42.018Z,58.80
2019-04-10T00:29:42.509Z,58.60
2019-04-10T00:30:42.760Z,57.20
2019-04-10T00:31:42.278Z,56.50
2019-04-10T00:32:41.616Z,57.10
2019-04-10T00:33:41.516Z,56.20
2019-04-10T00:34:42.057Z,57.90
2019-04-10T00:35:41.519Z,58.50
2019-04-10T00:36:41.546Z,58.00
2019-04-10T00:37:41.121Z,55.80
2019-04-10T00:38:41.876Z,56.10
2019-04-10T00:39:40.919Z,59.30
2019-04-10T00:40:41.589Z,58.50
2019-04-10T00:41:40.758Z,55.50
2019-04-10T00:42:41.148Z,53.70
2019-04-10T00:43:41.445Z,55.40
2019-04-10T00:44:40.423Z,58.40
2019-04-10T00:45:40.342Z,59.40
2019-04-10T00:46:40.220Z,60.70
2019-04-10T00:47:40.119Z,62.40
2019-04-10T00:48:40.022Z,61.50
2019-04-10T00:49:40.035Z,61.30
2019-04-10T00:50:39.835Z,61.50
2019-04-10T00:51:39.724Z,61.90
2019-04-10T00:52:40.642Z,60.40
2019-04-10T00:53:39.521Z,60.40
2019-04-10T00:54:39.424Z,61.70
2019-04-10T00:55:39.782Z,62.00
2019-04-10T00:56:39.236Z,63.50
2019-04-10T00:57:39.356Z,62.20
2019-04-10T00:58:39.550Z,62.80
2019-04-10T00:59:39.831Z,59.90
2019-04-10T01:00:39.220Z,61.00
2019-04-10T01:01:38.757Z,61.40
2019-04-10T01:02:38.772Z,66.20
2019-04-10T01:03:38.520Z,66.30
2019-04-10T01:04:38.422Z,59.80
2019-04-10T01:05:38.322Z,59.20
2019-04-10T01:06:38.237Z,59.70
2019-04-10T01:07:41.166Z,64.50
2019-04-10T01:08:38.022Z,64.30
2019-04-10T01:09:37.921Z,63.60
2019-04-10T01:10:38.764Z,64.00
2019-04-10T01:11:37.736Z,66.80
2019-04-10T01:12:38.373Z,68.60
2019-04-10T01:13:37.516Z,64.90
2019-04-10T01:14:38.043Z,65.60
2019-04-10T01:15:38.502Z,65.90
2019-04-10T01:16:37.714Z,67.90
2019-04-10T01:17:38.139Z,67.30
2019-04-10T01:18:37.412Z,64.10
2019-04-10T01:19:36.917Z,65.70
2019-04-10T01:20:37.767Z,64.90
2019-04-10T01:21:36.840Z,67.10
2019-04-10T01:22:36.617Z,67.60
2019-04-10T01:23:37.895Z,68.00
2019-04-10T01:24:37.552Z,66.70
2019-04-10T01:25:36.789Z,65.50
2019-04-10T01:26:37.089Z,65.90
2019-04-10T01:27:36.194Z,64.40
2019-04-10T01:28:36.675Z,63.50
2019-04-10T01:29:35.919Z,63.40
2019-04-10T01:30:35.815Z,63.80
2019-04-10T01:31:35.730Z,63.70
2019-04-10T01:32:36.334Z,63.40
2019-04-10T01:33:35.513Z,63.50
2019-04-10T01:34:35.744Z,64.20
2019-04-10T01:35:35.335Z,65.10
2019-04-10T01:36:35.376Z,67.70
2019-04-10T01:37:47.693Z,70.40
2019-04-10T01:38:35.594Z,65.80
2019-04-10T01:39:34.914Z,68.40
2019-04-10T01:40:35.163Z,64.30
2019-04-10T01:41:34.829Z,65.20
2019-04-10T01:42:34.656Z,65.70
2019-04-10T01:43:35.108Z,68.80
2019-04-10T01:44:34.411Z,71.60
2019-04-10T01:45:34.310Z,71.40
2019-04-10T01:46:35.823Z,72.00
2019-04-10T01:47:35.003Z,75.70
2019-04-10T01:48:34.535Z,71.50
2019-04-10T01:49:33.911Z,73.90
2019-04-10T01:50:34.742Z,75.30
2019-04-10T01:51:33.727Z,73.20
2019-04-10T01:52:33.624Z,73.30
2019-04-10T01:53:33.593Z,67.00
2019-04-10T01:54:33.415Z,66.10
2019-04-10T01:55:34.270Z,64.90
2019-04-10T01:56:35.117Z,64.50
2019-04-10T01:57:33.110Z,67.00
2019-04-10T01:58:33.009Z,64.80
2019-04-10T01:59:34.014Z,67.60
2019-04-10T02:00:32.812Z,65.40
2019-04-10T02:01:32.723Z,68.10
2019-04-10T02:02:33.549Z,65.20
2019-04-10T02:03:32.511Z,66.30
2019-04-10T02:04:33.142Z,70.20
2019-04-10T02:05:32.500Z,71.00
2019-04-10T02:06:32.224Z,71.40
2019-04-10T02:07:32.109Z,73.80
2019-04-10T02:08:32.004Z,75.50
2019-04-10T02:09:32.006Z,76.60
2019-04-10T02:10:32.105Z,74.70
2019-04-10T02:11:32.277Z,71.90
2019-04-10T02:12:31.606Z,75.00
2019-04-10T02:13:31.675Z,74.30
2019-04-10T02:14:32.118Z,74.40
2019-04-10T02:15:32.216Z,73.20
2019-04-10T02:16:31.326Z,78.00
2019-04-10T02:17:31.103Z,73.20
2019-04-10T02:18:31.005Z,77.20
2019-04-10T02:19:30.909Z,76.90
2019-04-10T02:20:31.325Z,76.40
2019-04-10T02:21:31.745Z,71.60
2019-04-10T02:22:30.853Z,68.90
2019-04-10T02:23:30.607Z,69.50
2019-04-10T02:24:31.326Z,67.60
2019-04-10T02:25:30.629Z,67.60
2019-04-10T02:26:30.217Z,68.00
2019-04-10T02:27:30.188Z,69.70
2019-04-10T02:28:30.961Z,68.30
2019-04-10T02:29:29.899Z,68.00
2019-04-10T02:30:30.352Z,69.30
2019-04-10T02:31:30.626Z,67.10
2019-04-10T02:32:29.601Z,63.50
2019-04-10T02:33:29.498Z,64.60
2019-04-10T02:34:30.692Z,64.60
2019-04-10T02:35:29.770Z,59.70
2019-04-10T02:36:31.364Z,63.60
2019-04-10T02:37:29.198Z,65.20
2019-04-10T02:38:47.835Z,65.10
2019-04-10T02:39:36.156Z,65.40
2019-04-10T02:40:28.964Z,66.50
2019-04-10T02:41:29.887Z,67.00
2019-04-10T02:42:30.089Z,108.50
2019-04-10T02:43:29.253Z,79.80
2019-04-10T02:44:30.462Z,74.80
2019-04-10T02:45:28.299Z,76.60
2019-04-10T02:46:29.280Z,73.10
2019-04-10T02:47:28.381Z,71.50
2019-04-10T02:48:29.549Z,73.00
2019-04-10T02:49:28.071Z,72.50
2019-04-10T02:50:29.280Z,75.60
2019-04-10T02:51:27.700Z,79.70
2019-04-10T02:52:28.422Z,80.70
2019-04-10T02:53:27.686Z,82.70
2019-04-10T02:54:28.942Z,82.60
2019-04-10T02:55:27.382Z,85.30
2019-04-10T02:56:28.488Z,86.50
2019-04-10T02:57:27.610Z,82.80
2019-04-10T02:58:26.993Z,79.60
2019-04-10T02:59:27.132Z,80.60
2019-04-10T03:00:28.173Z,79.70
2019-04-10T03:01:27.282Z,78.90
2019-04-10T03:02:26.847Z,110.50
2019-04-10T03:03:27.621Z,104.70
2019-04-10T03:04:26.717Z,123.20
2019-04-10T03:05:27.357Z,122.50
2019-04-10T03:06:27.253Z,260.10
2019-04-10T03:07:26.099Z,138.30
2019-04-10T03:08:41.009Z,137.50
2019-04-10T03:09:41.856Z,731.20
2019-04-10T03:10:35.968Z,1691.40
2019-04-10T03:11:26.472Z,1855.30
2019-04-10T03:12:25.726Z,1927.60
2019-04-10T03:13:26.850Z,1249.70
2019-04-10T03:14:26.430Z,1883.00
2019-04-10T03:15:25.364Z,1788.70
2019-04-10T03:16:25.174Z,938.60
2019-04-10T03:17:25.989Z,801.30
2019-04-10T03:18:25.150Z,1337.60
2019-04-10T03:19:25.495Z,1313.30
2019-04-10T03:20:24.771Z,1708.20
2019-04-10T03:21:24.671Z,1999.90
2019-04-10T03:22:24.947Z,930.40
2019-04-10T03:23:25.203Z,1121.20
2019-04-10T03:24:25.270Z,1999.90
2019-04-10T03:25:24.656Z,1999.90
2019-04-10T03:26:24.167Z,1673.90
2019-04-10T03:27:24.083Z,1992.10
2019-04-10T03:28:24.943Z,1341.20
2019-04-10T03:29:24.080Z,330.00
2019-04-10T03:30:23.906Z,232.80
2019-04-10T03:31:25.277Z,208.10
2019-04-10T03:32:27.880Z,170.50
2019-04-10T03:33:28.907Z,164.10
2019-04-10T03:34:25.609Z,177.00
2019-04-10T03:35:23.257Z,156.80
2019-04-10T03:36:23.271Z,141.70
2019-04-10T03:37:23.069Z,137.20
2019-04-10T03:38:23.726Z,140.30
2019-04-10T03:39:23.698Z,144.90
2019-04-10T03:40:23.698Z,151.90
2019-04-10T03:41:22.652Z,154.30
2019-04-10T03:42:23.199Z,154.60
2019-04-10T03:43:22.561Z,128.40
2019-04-10T03:44:22.835Z,121.40
2019-04-10T03:45:22.432Z,126.00
2019-04-10T03:46:22.154Z,132.30
2019-04-10T03:47:22.936Z,123.80
2019-04-10T03:48:22.966Z,122.70
2019-04-10T03:49:22.126Z,106.00
2019-04-10T03:50:21.739Z,110.30
2019-04-10T03:51:22.753Z,103.10
2019-04-10T03:52:21.549Z,100.20
2019-04-10T03:53:22.303Z,104.20
2019-04-10T03:54:21.329Z,104.60
2019-04-10T03:55:21.230Z,99.00
2019-04-10T03:56:21.362Z,98.10
2019-04-10T03:57:21.047Z,94.40
2019-04-10T03:58:20.926Z,92.70
2019-04-10T03:59:20.826Z,95.80
2019-04-10T04:00:21.066Z,96.00
2019-04-10T04:01:20.832Z,102.60
2019-04-10T04:02:20.535Z,107.40
2019-04-10T04:03:20.518Z,106.20
2019-04-10T04:04:20.315Z,101.00
2019-04-10T04:05:20.370Z,105.50
2019-04-10T04:06:20.113Z,108.00
2019-04-10T04:07:20.997Z,99.30
2019-04-10T04:08:19.909Z,95.60
2019-04-10T04:09:20.108Z,94.70
2019-04-10T04:10:20.491Z,95.90
2019-04-10T04:11:19.731Z,90.40
2019-04-10T04:12:20.238Z,93.40
2019-04-10T04:13:19.575Z,102.80
2019-04-10T04:14:19.969Z,97.70
2019-04-10T04:15:19.885Z,101.70
2019-04-10T04:16:19.237Z,107.70
2019-04-10T04:17:19.991Z,101.40
2019-04-10T04:18:19.278Z,104.00
2019-04-10T04:19:18.792Z,105.40
2019-04-10T04:20:19.104Z,98.20
2019-04-10T04:21:19.520Z,98.60
2019-04-10T04:22:18.817Z,90.70
2019-04-10T04:23:19.319Z,83.90
2019-04-10T04:24:21.142Z,84.30
2019-04-10T04:25:18.187Z,89.60
2019-04-10T04:26:19.067Z,79.60
2019-04-10T04:27:18.918Z,77.40
2019-04-10T04:28:18.838Z,79.80
2019-04-10T04:29:18.483Z,81.50
2019-04-10T04:30:17.681Z,80.80
2019-04-10T04:31:18.082Z,75.80
2019-04-10T04:32:17.697Z,73.70
2019-04-10T04:33:17.405Z,75.30
2019-04-10T04:34:17.270Z,74.80
2019-04-10T04:35:17.581Z,76.30
2019-04-10T04:36:18.040Z,79.20
2019-04-10T04:37:16.983Z,81.00
2019-04-10T04:38:17.795Z,74.60
2019-04-10T04:39:24.030Z,74.70
2019-04-10T04:40:17.430Z,76.00
2019-04-10T04:41:17.409Z,73.40
2019-04-10T04:42:17.025Z,73.00
2019-04-10T04:43:16.700Z,80.20
2019-04-10T04:44:16.251Z,81.50
2019-04-10T04:45:17.282Z,79.00
2019-04-10T04:46:16.219Z,71.60
2019-04-10T04:47:15.948Z,71.80
2019-04-10T04:48:16.935Z,73.20
2019-04-10T04:49:15.768Z,72.90
2019-04-10T04:50:15.749Z,75.20
2019-04-10T04:51:15.539Z,77.90
2019-04-10T04:52:16.250Z,79.20
2019-04-10T04:53:16.322Z,77.50
2019-04-10T04:54:15.234Z,72.20
2019-04-10T04:55:15.132Z,71.00
2019-04-10T04:56:15.749Z,73.80
2019-04-10T04:57:15.038Z,72.20
2019-04-10T04:58:14.894Z,68.70
2019-04-10T04:59:14.725Z,68.50
2019-04-10T05:00:15.246Z,67.10
2019-04-10T05:01:14.741Z,66.50
2019-04-10T05:02:14.441Z,65.40
2019-04-10T05:03:14.336Z,66.10
2019-04-10T05:04:15.186Z,66.00
2019-04-10T05:05:14.312Z,67.30
2019-04-10T05:06:14.016Z,65.90
2019-04-10T05:07:14.832Z,64.00
2019-04-10T05:08:13.826Z,63.30
2019-04-10T05:09:25.995Z,62.10
2019-04-10T05:10:13.623Z,64.00
2019-04-10T05:11:13.884Z,63.60
2019-04-10T05:12:13.460Z,64.60
2019-04-10T05:13:13.674Z,65.90
2019-04-10T05:14:13.250Z,63.60
2019-04-10T05:15:13.099Z,63.80
2019-04-10T05:16:13.000Z,64.30
2019-04-10T05:17:15.066Z,64.50
2019-04-10T05:18:12.810Z,62.70
2019-04-10T05:19:12.690Z,62.60
2019-04-10T05:20:12.589Z,61.30
2019-04-10T05:21:12.744Z,61.30
2019-04-10T05:22:12.387Z,59.90
2019-04-10T05:23:12.300Z,57.70
2019-04-10T05:24:12.184Z,55.90
2019-04-10T05:25:13.172Z,54.80
2019-04-10T05:26:11.984Z,53.90
2019-04-10T05:27:11.949Z,55.10
2019-04-10T05:28:11.801Z,54.40
2019-04-10T05:29:11.688Z,55.40
2019-04-10T05:30:11.574Z,52.50
2019-04-10T05:31:11.474Z,49.10
2019-04-10T05:32:11.479Z,48.30
2019-04-10T05:33:11.994Z,48.60
2019-04-10T05:34:11.455Z,46.80
2019-04-10T05:35:11.591Z,45.70
2019-04-10T05:36:11.213Z,46.10
2019-04-10T05:37:11.458Z,45.20
2019-04-10T05:38:10.792Z,43.90
2019-04-10T05:39:10.675Z,43.50
2019-04-10T05:40:10.567Z,46.00
2019-04-10T05:41:10.467Z,48.40
2019-04-10T05:42:10.622Z,47.30
2019-04-10T05:43:11.408Z,48.00
2019-04-10T05:44:10.163Z,52.00
2019-04-10T05:45:10.071Z,53.50
2019-04-10T05:46:09.963Z,52.10
2019-04-10T05:47:10.347Z,47.30
2019-04-10T05:48:10.978Z,44.00
2019-04-10T05:49:10.748Z,41.80
2019-04-10T05:50:10.769Z,42.50
2019-04-10T05:51:09.558Z,41.10
2019-04-10T05:52:10.196Z,43.20
2019-04-10T05:53:09.824Z,42.10
2019-04-10T05:54:09.164Z,41.90
2019-04-10T05:55:09.063Z,42.00
2019-04-10T05:56:09.860Z,41.30
2019-04-10T05:57:08.860Z,40.20
2019-04-10T05:58:09.228Z,38.80
2019-04-10T05:59:10.804Z,39.50
2019-04-10T06:00:08.566Z,39.60
2019-04-10T06:01:09.390Z,39.00
2019-04-10T06:02:09.338Z,39.40
2019-04-10T06:03:08.284Z,39.00
2019-04-10T06:04:09.207Z,39.20
2019-04-10T06:05:08.068Z,37.90
2019-04-10T06:06:08.345Z,37.90
2019-04-10T06:07:08.577Z,38.00
2019-04-10T06:08:07.894Z,38.20
2019-04-10T06:09:08.657Z,37.50
2019-04-10T06:10:10.270Z,38.30
2019-04-10T06:11:08.600Z,38.60
2019-04-10T06:12:07.363Z,39.60
2019-04-10T06:13:07.287Z,37.60
2019-04-10T06:14:08.152Z,38.00
2019-04-10T06:15:07.066Z,40.10
2019-04-10T06:16:07.713Z,37.70
2019-04-10T06:17:07.949Z,39.10
2019-04-10T06:18:07.102Z,37.70
2019-04-10T06:19:07.326Z,35.20
2019-04-10T06:20:07.120Z,33.60
2019-04-10T06:21:07.095Z,33.20
2019-04-10T06:22:09.192Z,29.70
2019-04-10T06:23:07.335Z,30.20
2019-04-10T06:24:06.200Z,29.50
2019-04-10T06:25:08.333Z,29.70
2019-04-10T06:26:06.864Z,29.60
2019-04-10T06:27:06.003Z,30.70
2019-04-10T06:28:05.773Z,29.90
2019-04-10T06:29:06.512Z,29.00
2019-04-10T06:30:05.734Z,28.80
2019-04-10T06:31:06.213Z,29.50
2019-04-10T06:32:05.412Z,29.30
2019-04-10T06:33:05.283Z,30.50
2019-04-10T06:34:05.304Z,31.40
2019-04-10T06:35:05.770Z,32.30
2019-04-10T06:36:05.026Z,31.70
2019-04-10T06:37:06.038Z,31.10
2019-04-10T06:38:04.794Z,31.80
2019-04-10T06:39:04.733Z,31.80
2019-04-10T06:40:13.039Z,31.70
2019-04-10T06:41:04.609Z,30.40
2019-04-10T06:42:04.550Z,31.70
2019-04-10T06:43:04.456Z,31.70
2019-04-10T06:44:04.222Z,31.30
2019-04-10T06:45:05.715Z,32.60
2019-04-10T06:46:04.320Z,31.90
2019-04-10T06:47:04.231Z,31.90
2019-04-10T06:48:03.927Z,32.00
2019-04-10T06:49:05.418Z,30.60
2019-04-10T06:50:04.338Z,30.60
2019-04-10T06:51:04.002Z,30.10
2019-04-10T06:52:03.429Z,31.40
2019-04-10T06:53:04.137Z,31.50
2019-04-10T06:54:08.102Z,31.70
2019-04-10T06:55:03.239Z,30.90
2019-04-10T06:56:03.048Z,31.00
2019-04-10T06:57:02.941Z,31.10
2019-04-10T06:58:02.868Z,30.30
2019-04-10T06:59:02.785Z,30.80
2019-04-10T07:00:02.651Z,29.60
2019-04-10T07:01:02.555Z,30.20
2019-04-10T07:02:13.112Z,30.20
2019-04-10T07:03:03.098Z,30.60
2019-04-10T07:04:06.985Z,29.50
2019-04-10T07:05:05.754Z,27.90
2019-04-10T07:06:09.644Z,28.40
2019-04-10T07:07:08.839Z,27.60
2019-04-10T07:08:10.983Z,28.10
2019-04-10T07:09:01.927Z,28.30
2019-04-10T07:10:02.332Z,27.50
2019-04-10T07:11:06.824Z,28.50
2019-04-10T07:12:03.025Z,26.50
2019-04-10T07:13:04.287Z,26.90
2019-04-10T07:14:01.595Z,26.90
2019-04-10T07:15:02.329Z,27.10
2019-04-10T07:16:02.061Z,27.10
2019-04-10T07:17:05.315Z,26.40
2019-04-10T07:18:01.027Z,26.30
2019-04-10T07:19:04.269Z,26.30
2019-04-10T07:20:01.852Z,27.00
2019-04-10T07:21:01.678Z,26.40
2019-04-10T07:22:01.868Z,26.20
2019-04-10T07:23:00.544Z,27.10
2019-04-10T07:24:04.999Z,26.60
2019-04-10T07:25:00.550Z,26.90
2019-04-10T07:26:00.168Z,27.60
2019-04-10T07:27:03.289Z,27.10
2019-04-10T07:28:01.171Z,27.90
2019-04-10T07:29:00.549Z,26.20
2019-04-10T07:29:59.865Z,27.20
2019-04-10T07:31:05.002Z,26.90
2019-04-10T07:32:00.461Z,26.90
2019-04-10T07:32:59.500Z,27.10
2019-04-10T07:33:59.977Z,28.00
2019-04-10T07:35:01.125Z,26.80
2019-04-10T07:35:59.295Z,28.80
2019-04-10T07:37:00.124Z,28.40
2019-04-10T07:37:59.680Z,29.10
2019-04-10T07:38:59.223Z,28.10
2019-04-10T07:40:02.619Z,29.20
2019-04-10T07:40:58.913Z,28.50
2019-04-10T07:41:58.654Z,28.50
2019-04-10T07:42:58.772Z,29.40
2019-04-10T07:43:58.755Z,28.60
2019-04-10T07:44:58.392Z,28.80
2019-04-10T07:45:58.280Z,29.00
2019-04-10T07:46:59.718Z,29.30
2019-04-10T07:47:58.159Z,28.20
2019-04-10T07:48:58.606Z,27.50
2019-04-10T07:50:00.786Z,27.30
2019-04-10T07:50:57.812Z,27.80
2019-04-10T07:51:58.656Z,27.50
2019-04-10T07:52:57.661Z,27.70
2019-04-10T07:53:57.754Z,27.40
2019-04-10T07:54:58.653Z,27.60
2019-04-10T07:56:05.359Z,26.60
2019-04-10T07:56:57.892Z,27.30
2019-04-10T07:57:57.260Z,26.90
2019-04-10T07:58:57.065Z,27.00
2019-04-10T07:59:56.983Z,25.50
2019-04-10T08:00:56.872Z,26.60
2019-04-10T08:01:57.776Z,26.00
2019-04-10T08:02:57.495Z,26.50
2019-04-10T08:03:57.580Z,27.10
2019-04-10T08:04:56.517Z,28.60
2019-04-10T08:05:56.416Z,28.70
2019-04-10T08:06:56.323Z,29.50
2019-04-10T08:07:57.419Z,28.70
2019-04-10T08:08:56.133Z,28.40
2019-04-10T08:09:56.059Z,26.80
2019-04-10T08:10:55.957Z,28.40
2019-04-10T08:11:56.732Z,28.30
2019-04-10T08:12:56.021Z,26.60
2019-04-10T08:13:56.140Z,26.10
2019-04-10T08:14:56.166Z,28.50
2019-04-10T08:15:56.347Z,27.50
2019-04-10T08:16:55.398Z,28.10
2019-04-10T08:17:56.107Z,28.50
2019-04-10T08:18:56.215Z,28.70
2019-04-10T08:19:55.200Z,28.60
2019-04-10T08:20:55.212Z,28.20
2019-04-10T08:21:54.941Z,29.80
2019-04-10T08:22:55.329Z,28.60
2019-04-10T08:23:54.912Z,28.80
2019-04-10T08:24:54.824Z,28.50
2019-04-10T08:25:54.596Z,28.60
2019-04-10T08:26:54.835Z,29.60
2019-04-10T08:27:54.385Z,28.90
2019-04-10T08:28:54.296Z,28.00
2019-04-10T08:29:54.785Z,28.70
2019-04-10T08:30:54.649Z,28.50
2019-04-10T08:31:54.022Z,29.10
2019-04-10T08:33:00.846Z,28.10
2019-04-10T08:33:54.740Z,28.00
2019-04-10T08:34:53.745Z,28.50
2019-04-10T08:35:54.717Z,29.00
2019-04-10T08:36:55.045Z,30.80
2019-04-10T08:37:53.510Z,29.50
2019-04-10T08:38:53.380Z,28.90
2019-04-10T08:39:53.290Z,28.50
2019-04-10T08:40:54.390Z,29.20
2019-04-10T08:41:53.106Z,29.40
2019-04-10T08:42:53.018Z,29.10
2019-04-10T08:43:52.926Z,28.60
2019-04-10T08:44:52.836Z,30.50
2019-04-10T08:45:53.761Z,30.70
2019-04-10T08:46:52.668Z,30.30
2019-04-10T08:47:52.923Z,30.00
2019-04-10T08:48:52.471Z,30.30
2019-04-10T08:49:52.871Z,29.30
2019-04-10T08:50:52.500Z,30.30
2019-04-10T08:51:52.215Z,29.70
2019-04-10T08:52:52.210Z,30.20
2019-04-10T08:53:54.211Z,30.30
2019-04-10T08:54:51.924Z,29.80
2019-04-10T08:55:52.614Z,29.30
2019-04-10T08:56:52.608Z,30.10
2019-04-10T08:57:52.426Z,30.00
2019-04-10T08:58:51.776Z,28.80
2019-04-10T08:59:52.049Z,30.00
2019-04-10T09:00:52.726Z,30.30
2019-04-10T09:01:51.529Z,29.90
2019-04-10T09:02:51.200Z,30.70
2019-04-10T09:03:51.111Z,28.80
2019-04-10T09:04:51.086Z,28.90
2019-04-10T09:05:51.146Z,29.60
2019-04-10T09:06:51.545Z,28.80
2019-04-10T09:07:50.751Z,29.40
2019-04-10T09:08:50.930Z,28.50
2019-04-10T09:09:50.565Z,29.60
2019-04-10T09:10:50.524Z,29.20
2019-04-10T09:11:51.383Z,29.90
2019-04-10T09:12:51.181Z,29.60
2019-04-10T09:13:50.311Z,29.30
2019-04-10T09:14:50.113Z,29.20
2019-04-10T09:15:50.047Z,28.00
2019-04-10T09:16:51.003Z,29.10
2019-04-10T09:17:49.878Z,28.80
2019-04-10T09:18:49.750Z,29.30
2019-04-10T09:19:49.864Z,29.40
2019-04-10T09:20:49.698Z,29.10
2019-04-10T09:21:49.901Z,29.20
2019-04-10T09:23:10.366Z,28.90
2019-04-10T09:23:52.822Z,28.50
2019-04-10T09:24:49.210Z,28.20
2019-04-10T09:25:49.221Z,28.40
2019-04-10T09:26:49.034Z,28.50
2019-04-10T09:27:49.697Z,27.80
2019-04-10T09:28:48.862Z,28.40
2019-04-10T09:29:48.763Z,27.30
2019-04-10T09:30:49.059Z,29.00
2019-04-10T09:31:48.593Z,28.60
2019-04-10T09:32:48.581Z,28.10
2019-04-10T09:33:49.460Z,28.80
2019-04-10T09:34:48.315Z,27.70
2019-04-10T09:35:48.867Z,28.60
2019-04-10T09:36:49.195Z,28.20
2019-04-10T09:37:48.340Z,28.70
2019-04-10T09:38:47.961Z,28.80
2019-04-10T09:39:50.609Z,27.70
2019-04-10T09:40:48.760Z,28.40
2019-04-10T09:41:47.694Z,29.00
2019-04-10T09:42:47.993Z,28.90
2019-04-10T09:43:47.743Z,29.30
2019-04-10T09:44:48.513Z,28.40
2019-04-10T09:45:48.026Z,29.10
2019-04-10T09:46:47.336Z,28.40
2019-04-10T09:47:48.075Z,28.20
2019-04-10T09:48:47.686Z,28.60
2019-04-10T09:49:47.215Z,29.40
2019-04-10T09:50:48.057Z,29.00
2019-04-10T09:51:48.059Z,27.80
2019-04-10T09:52:46.719Z,28.60
2019-04-10T09:53:46.627Z,28.30
2019-04-10T09:54:46.795Z,27.30
2019-04-10T09:55:46.934Z,26.50
2019-04-10T09:56:46.416Z,26.60
2019-04-10T09:57:46.272Z,26.70
2019-04-10T09:58:46.813Z,27.60
2019-04-10T09:59:47.136Z,27.20
2019-04-10T10:00:46.021Z,26.10
2019-04-10T10:01:46.452Z,27.00
2019-04-10T10:02:45.827Z,26.60
2019-04-10T10:03:45.740Z,26.20
2019-04-10T10:04:45.996Z,26.30
2019-04-10T10:05:46.634Z,27.00
2019-04-10T10:06:45.472Z,26.40
2019-04-10T10:07:45.383Z,25.70
2019-04-10T10:08:45.301Z,26.30
2019-04-10T10:09:45.218Z,25.10
2019-04-10T10:10:45.121Z,26.00
2019-04-10T10:11:45.045Z,25.80
2019-04-10T10:12:45.034Z,26.20
2019-04-10T10:13:45.806Z,24.80
2019-04-10T10:14:44.767Z,26.70
2019-04-10T10:15:45.242Z,25.20
2019-04-10T10:16:44.603Z,25.60
2019-04-10T10:17:44.602Z,25.30
2019-04-10T10:18:45.643Z,26.20
2019-04-10T10:19:44.321Z,25.70
2019-04-10T10:20:44.241Z,24.80
2019-04-10T10:21:44.887Z,26.00
2019-04-10T10:22:44.061Z,25.50
2019-04-10T10:23:44.673Z,25.70
2019-04-10T10:24:43.880Z,25.10
2019-04-10T10:25:43.795Z,24.60
2019-04-10T10:26:46.051Z,25.20
2019-04-10T10:27:44.676Z,25.10
2019-04-10T10:28:43.529Z,24.00
2019-04-10T10:29:44.111Z,24.40
2019-04-10T10:30:43.968Z,25.30
2019-04-10T10:31:44.378Z,23.50
2019-04-10T10:32:43.803Z,25.10
2019-04-10T10:33:43.092Z,25.10
2019-04-10T10:34:43.001Z,24.60
2019-04-10T10:35:43.194Z,24.00
2019-04-10T10:36:46.146Z,24.50
2019-04-10T10:37:42.905Z,23.90
2019-04-10T10:38:43.386Z,23.40
2019-04-10T10:39:43.072Z,24.10
2019-04-10T10:40:43.599Z,24.30
2019-04-10T10:41:42.643Z,25.00
2019-04-10T10:42:43.462Z,23.90
2019-04-10T10:43:42.618Z,23.80
2019-04-10T10:44:42.476Z,24.90
2019-04-10T10:45:42.937Z,23.80
2019-04-10T10:46:41.969Z,24.40
2019-04-10T10:47:41.863Z,24.30
2019-04-10T10:48:42.057Z,23.70
2019-04-10T10:49:42.359Z,23.80
2019-04-10T10:50:41.655Z,23.10
2019-04-10T10:51:42.545Z,24.00
2019-04-10T10:52:41.713Z,24.10
2019-04-10T10:53:41.351Z,22.80
2019-04-10T10:54:41.254Z,23.30
2019-04-10T10:55:42.058Z,23.70
2019-04-10T10:56:41.097Z,23.80
2019-04-10T10:57:41.568Z,23.70
2019-04-10T10:58:40.905Z,23.20
2019-04-10T10:59:41.790Z,23.20
2019-04-10T11:00:41.130Z,23.40
2019-04-10T11:01:40.662Z,23.20
2019-04-10T11:02:41.504Z,24.10
2019-04-10T11:03:40.563Z,22.60
2019-04-10T11:04:40.387Z,22.70
2019-04-10T11:05:40.403Z,22.20
2019-04-10T11:06:51.497Z,22.70
2019-04-10T11:07:40.533Z,22.90
2019-04-10T11:08:40.033Z,23.50
2019-04-10T11:09:40.218Z,22.80
2019-04-10T11:10:41.084Z,22.60
2019-04-10T11:11:40.932Z,21.90
2019-04-10T11:12:39.989Z,21.70
2019-04-10T11:13:39.602Z,22.10
2019-04-10T11:14:39.632Z,20.90
2019-04-10T11:15:43.671Z,21.20
2019-04-10T11:16:39.352Z,21.60
2019-04-10T11:17:40.404Z,22.00
2019-04-10T11:18:40.316Z,20.80
2019-04-10T11:19:39.453Z,21.10
2019-04-10T11:20:39.406Z,21.20
2019-04-10T11:21:39.053Z,21.80
2019-04-10T11:22:39.733Z,22.20
2019-04-10T11:23:38.872Z,21.30
2019-04-10T11:24:40.759Z,21.10
2019-04-10T11:25:40.141Z,21.10
2019-04-10T11:26:39.923Z,20.70
2019-04-10T11:27:39.311Z,20.70
2019-04-10T11:28:39.301Z,21.20
2019-04-10T11:29:39.014Z,20.90
2019-04-10T11:30:38.346Z,21.00
2019-04-10T11:31:38.544Z,20.80
2019-04-10T11:32:38.289Z,21.10
2019-04-10T11:33:39.714Z,20.90
2019-04-10T11:34:38.205Z,20.50
2019-04-10T11:35:37.686Z,20.90
2019-04-10T11:36:37.614Z,21.80
2019-04-10T11:37:44.585Z,21.30
2019-04-10T11:38:37.503Z,20.60
2019-04-10T11:39:40.424Z,21.10
2019-04-10T11:40:38.822Z,20.70
2019-04-10T11:41:37.432Z,21.10
2019-04-10T11:42:37.282Z,21.70
2019-04-10T11:43:37.663Z,20.60
2019-04-10T11:44:38.932Z,20.30
2019-04-10T11:45:42.603Z,21.00
2019-04-10T11:46:38.684Z,21.10
2019-04-10T11:47:36.760Z,20.90
2019-04-10T11:48:36.687Z,20.60
2019-04-10T11:49:40.035Z,21.10
2019-04-10T11:50:38.442Z,21.40
2019-04-10T11:51:38.736Z,21.20
2019-04-10T11:53:39.874Z,20.40
2019-04-10T11:54:40.980Z,21.00
2019-04-10T11:56:37.845Z,21.00
2019-04-10T11:57:37.326Z,21.20
2019-04-10T11:58:43.860Z,20.50
2019-04-10T11:59:37.967Z,21.00
2019-04-10T12:00:46.420Z,20.80
2019-04-10T12:01:36.823Z,20.00
2019-04-10T12:02:36.937Z,20.70
2019-04-10T12:03:37.052Z,20.70
2019-04-10T12:04:47.453Z,20.20
2019-04-10T12:05:36.673Z,20.00
2019-04-10T12:06:37.659Z,20.80
2019-04-10T12:08:01.337Z,19.90
2019-04-10T12:09:00.374Z,20.50
2019-04-10T12:11:35.160Z,20.90
2019-04-10T12:12:35.459Z,20.30
2019-04-10T12:13:34.531Z,19.60
2019-04-10T12:14:35.221Z,20.30
2019-04-10T12:15:34.442Z,19.70
2019-04-10T12:16:34.122Z,20.00
2019-04-10T12:17:34.052Z,20.70
2019-04-10T12:18:35.030Z,20.20
2019-04-10T12:19:33.861Z,19.70
2019-04-10T12:20:33.776Z,20.30
2019-04-10T12:21:33.767Z,20.70
2019-04-10T12:22:33.817Z,21.20
2019-04-10T12:23:34.651Z,21.40
2019-04-10T12:24:34.191Z,21.20
2019-04-10T12:25:34.627Z,21.30
2019-04-10T12:26:33.901Z,21.30
2019-04-10T12:27:33.526Z,20.70
2019-04-10T12:28:33.920Z,20.60
2019-04-10T12:29:33.077Z,20.60
2019-04-10T12:30:32.905Z,21.40
2019-04-10T12:31:33.241Z,21.50
2019-04-10T12:32:32.747Z,21.50
2019-04-10T12:33:33.687Z,21.10
2019-04-10T12:34:32.557Z,21.30
2019-04-10T12:35:32.470Z,19.60
2019-04-10T12:36:32.383Z,21.10
2019-04-10T12:37:32.832Z,20.10
2019-04-10T12:38:32.206Z,20.00
2019-04-10T12:39:32.255Z,20.50
2019-04-10T12:40:32.928Z,20.60
2019-04-10T12:41:33.143Z,20.30
2019-04-10T12:42:32.339Z,21.30
2019-04-10T12:43:32.665Z,19.70
2019-04-10T12:44:31.735Z,19.90
2019-04-10T12:45:32.616Z,19.50
2019-04-10T12:46:31.502Z,19.80
2019-04-10T12:47:32.208Z,20.90
2019-04-10T12:48:31.548Z,21.20
2019-04-10T12:49:31.692Z,20.80
2019-04-10T12:50:31.149Z,20.00
2019-04-10T12:51:31.978Z,21.20
2019-04-10T12:52:30.991Z,21.40
2019-04-10T12:53:31.743Z,20.90